createdAt,value
2018-02-05T00:00:57.389Z,2.55
2018-02-05T00:03:23.311Z,2.48
2018-02-05T00:05:49.235Z,2.74
2018-02-05T00:08:15.165Z,2.80
2018-02-05T00:10:41.086Z,2.81
2018-02-05T00:13:07.007Z,3.05
2018-02-05T00:15:32.956Z,2.96
2018-02-05T00:17:58.887Z,3.31
2018-02-05T00:20:24.816Z,3.23
2018-02-05T00:22:50.765Z,3.14
2018-02-05T00:25:16.687Z,3.26
2018-02-05T00:27:42.639Z,3.06
2018-02-05T00:30:08.580Z,3.14
2018-02-05T00:32:34.507Z,2.62
2018-02-05T00:35:00.443Z,2.89
2018-02-05T00:37:26.405Z,2.80
2018-02-05T00:39:52.336Z,3.13
2018-02-05T00:42:18.269Z,3.16
2018-02-05T00:44:44.191Z,3.05
2018-02-05T00:47:10.117Z,3.12
2018-02-05T00:49:36.037Z,2.83
2018-02-05T00:52:01.973Z,3.09
2018-02-05T00:54:28.940Z,2.75
2018-02-05T00:56:54.863Z,2.29
2018-02-05T00:59:20.799Z,2.39
2018-02-05T01:01:46.743Z,2.69
2018-02-05T01:04:12.671Z,2.63
2018-02-05T01:06:38.593Z,2.34
2018-02-05T01:09:04.527Z,2.51
2018-02-05T01:11:30.471Z,2.81
2018-02-05T01:13:56.408Z,3.03
2018-02-05T01:16:22.332Z,3.04
2018-02-05T01:18:48.301Z,2.91
2018-02-05T01:21:14.231Z,2.82
2018-02-05T01:23:40.175Z,3.13
2018-02-05T01:26:06.112Z,3.15
2018-02-05T01:28:32.035Z,3.01
2018-02-05T01:30:57.980Z,3.19
2018-02-05T01:33:23.917Z,3.25
2018-02-05T01:35:49.845Z,3.34
2018-02-05T01:38:15.780Z,3.45
2018-02-05T01:40:41.709Z,3.66
2018-02-05T01:43:07.639Z,3.56
2018-02-05T01:45:33.566Z,3.34
2018-02-05T01:47:59.511Z,3.30
2018-02-05T01:50:25.448Z,3.25
2018-02-05T01:52:51.400Z,3.36
2018-02-05T01:55:17.319Z,3.41
2018-02-05T01:57:43.252Z,3.30
2018-02-05T02:00:09.169Z,3.42
2018-02-05T02:02:35.125Z,3.35
2018-02-05T02:05:01.178Z,3.62
2018-02-05T02:07:27.133Z,3.52
2018-02-05T02:09:53.049Z,3.41
2018-02-05T02:12:19.008Z,3.31
2018-02-05T02:14:44.942Z,2.93
2018-02-05T02:17:10.866Z,2.68
2018-02-05T02:19:36.797Z,2.51
2018-02-05T02:22:02.730Z,3.07
2018-02-05T02:24:28.681Z,3.10
2018-02-05T02:26:54.606Z,3.02
2018-02-05T02:29:20.548Z,2.96
2018-02-05T02:31:46.496Z,3.02
2018-02-05T02:34:12.438Z,3.10
2018-02-05T02:36:38.385Z,3.13
2018-02-05T02:39:04.312Z,3.21
2018-02-05T02:41:30.242Z,2.92
2018-02-05T02:43:56.156Z,3.06
2018-02-05T02:46:22.100Z,3.08
2018-02-05T02:48:48.020Z,3.11
2018-02-05T02:51:13.944Z,3.33
2018-02-05T02:53:39.864Z,3.68
2018-02-05T02:56:05.803Z,3.34
2018-02-05T02:58:31.731Z,3.16
2018-02-05T03:00:57.686Z,3.31
2018-02-05T03:03:23.620Z,3.45
2018-02-05T03:05:49.549Z,3.30
2018-02-05T03:08:15.493Z,3.35
2018-02-05T03:10:41.414Z,3.34
2018-02-05T03:13:07.350Z,3.37
2018-02-05T03:15:33.258Z,3.50
2018-02-05T03:17:59.234Z,3.72
2018-02-05T03:20:25.179Z,3.59
2018-02-05T03:22:51.094Z,3.67
2018-02-05T03:25:17.041Z,3.53
2018-02-05T03:27:42.983Z,3.32
2018-02-05T03:30:08.932Z,2.94
2018-02-05T03:32:34.866Z,3.21
2018-02-05T03:35:00.806Z,3.40
2018-02-05T03:37:26.738Z,3.35
2018-02-05T03:39:52.678Z,3.66
2018-02-05T03:42:18.600Z,3.62
2018-02-05T03:44:44.534Z,3.42
2018-02-05T03:47:10.454Z,3.38
2018-02-05T03:49:36.408Z,3.60
2018-02-05T03:52:02.336Z,3.57
2018-02-05T03:54:28.272Z,3.60
2018-02-05T03:56:54.190Z,3.62
2018-02-05T03:59:20.134Z,3.86
2018-02-05T04:01:46.077Z,3.78
2018-02-05T04:04:12.010Z,3.24
2018-02-05T04:06:37.948Z,3.47
2018-02-05T04:09:03.902Z,3.51
2018-02-05T04:11:29.826Z,3.02
2018-02-05T04:13:55.756Z,3.21
2018-02-05T04:16:21.779Z,3.60
2018-02-05T04:18:47.770Z,3.35
2018-02-05T04:21:13.710Z,3.17
2018-02-05T04:23:39.682Z,3.41
2018-02-05T04:26:05.614Z,3.43
2018-02-05T04:28:31.544Z,3.32
2018-02-05T04:30:57.616Z,3.33
2018-02-05T04:33:23.718Z,3.59
2018-02-05T04:35:49.740Z,3.37
2018-02-05T04:38:15.734Z,3.52
2018-02-05T04:40:41.715Z,3.23
2018-02-05T04:43:07.956Z,3.25
2018-02-05T04:45:33.972Z,3.27
2018-02-05T04:47:59.905Z,3.49
2018-02-05T04:50:25.840Z,3.51
2018-02-05T04:52:51.766Z,3.82
2018-02-05T04:55:17.754Z,3.72
2018-02-05T04:57:43.683Z,3.31
2018-02-05T05:00:09.615Z,3.19
2018-02-05T05:02:35.547Z,3.47
2018-02-05T05:05:01.482Z,3.47
2018-02-05T05:07:27.432Z,3.29
2018-02-05T05:09:53.389Z,3.62
2018-02-05T05:12:19.337Z,3.58
2018-02-05T05:14:45.294Z,3.71
2018-02-05T05:17:11.356Z,3.66
2018-02-05T05:19:37.289Z,3.51
2018-02-05T05:22:03.234Z,3.47
2018-02-05T05:24:29.189Z,3.37
2018-02-05T05:26:55.115Z,3.47
2018-02-05T05:29:21.051Z,3.43
2018-02-05T05:31:46.990Z,2.91
2018-02-05T05:34:12.944Z,3.50
2018-02-05T05:36:38.891Z,3.81
2018-02-05T05:39:04.873Z,4.11
2018-02-05T05:41:30.833Z,4.18
2018-02-05T05:43:56.774Z,4.09
2018-02-05T05:46:22.715Z,3.75
2018-02-05T05:48:48.646Z,3.46
2018-02-05T05:51:14.594Z,3.19
2018-02-05T05:53:40.534Z,3.31
2018-02-05T05:56:06.459Z,3.40
2018-02-05T05:58:32.422Z,3.11
2018-02-05T06:00:58.420Z,3.37
2018-02-05T06:03:24.371Z,3.66
2018-02-05T06:05:50.351Z,3.70
2018-02-05T06:08:16.317Z,3.64
2018-02-05T06:10:42.261Z,3.36
2018-02-05T06:13:08.229Z,3.26
2018-02-05T06:15:34.156Z,3.45
2018-02-05T06:18:00.178Z,3.47
2018-02-05T06:20:26.142Z,3.39
2018-02-05T06:22:52.071Z,3.13
2018-02-05T06:25:18.013Z,3.16
2018-02-05T06:27:43.956Z,2.90
2018-02-05T06:30:09.877Z,3.35
2018-02-05T06:32:35.803Z,3.53
2018-02-05T06:35:01.717Z,3.06
2018-02-05T06:37:27.644Z,3.13
2018-02-05T06:39:53.579Z,3.17
2018-02-05T06:42:19.519Z,3.38
2018-02-05T06:44:45.463Z,3.35
2018-02-05T06:47:11.390Z,3.26
2018-02-05T06:49:37.330Z,3.26
2018-02-05T06:52:03.259Z,3.40
2018-02-05T06:54:29.199Z,3.43
2018-02-05T06:56:55.147Z,3.48
2018-02-05T06:59:21.075Z,3.54
2018-02-05T07:01:47.031Z,3.41
2018-02-05T07:04:12.957Z,3.56
2018-02-05T07:06:38.883Z,3.08
2018-02-05T07:09:04.803Z,3.06
2018-02-05T07:11:30.727Z,3.04
2018-02-05T07:13:56.669Z,3.37
2018-02-05T07:16:22.593Z,3.41
2018-02-05T07:18:48.505Z,3.73
2018-02-05T07:21:14.435Z,3.39
2018-02-05T07:23:40.374Z,3.36
2018-02-05T07:26:06.308Z,3.56
2018-02-05T07:28:32.259Z,3.42
2018-02-05T07:30:58.198Z,3.44
2018-02-05T07:33:24.129Z,3.03
2018-02-05T07:35:50.061Z,3.33
2018-02-05T07:38:16.007Z,3.38
2018-02-05T07:40:41.942Z,3.18
2018-02-05T07:43:07.859Z,3.22
2018-02-05T07:45:33.788Z,3.28
2018-02-05T07:47:59.801Z,3.80
2018-02-05T07:50:25.727Z,3.63
2018-02-05T07:52:51.665Z,3.23
2018-02-05T07:55:17.585Z,3.38
2018-02-05T07:57:43.524Z,3.85
2018-02-05T08:00:09.461Z,4.21
2018-02-05T08:02:35.773Z,4.15
2018-02-05T08:05:01.761Z,3.94
2018-02-05T08:07:27.799Z,4.28
2018-02-05T08:09:53.737Z,4.05
2018-02-05T08:12:19.767Z,4.12
2018-02-05T08:14:45.713Z,4.07
2018-02-05T08:17:11.639Z,4.06
2018-02-05T08:19:37.577Z,3.73
2018-02-05T08:22:03.511Z,3.85
2018-02-05T08:24:29.465Z,3.43
2018-02-05T08:26:55.399Z,3.68
2018-02-05T08:29:21.340Z,3.44
2018-02-05T08:31:47.274Z,3.70
2018-02-05T08:34:13.213Z,3.79
2018-02-05T08:36:39.139Z,4.11
2018-02-05T08:39:05.074Z,4.14
2018-02-05T08:41:31.021Z,4.10
2018-02-05T08:43:56.954Z,3.88
2018-02-05T08:46:22.873Z,3.92
2018-02-05T08:48:48.798Z,3.82
2018-02-05T08:51:14.738Z,4.05
2018-02-05T08:53:40.662Z,3.87
2018-02-05T08:56:06.599Z,3.69
2018-02-05T08:58:32.561Z,3.73
2018-02-05T09:00:58.490Z,3.79
2018-02-05T09:03:24.461Z,3.58
2018-02-05T09:05:50.386Z,3.48
2018-02-05T09:08:16.308Z,3.32
2018-02-05T09:10:42.277Z,3.49
2018-02-05T09:13:08.269Z,3.68
2018-02-05T09:15:34.237Z,3.59
2018-02-05T09:18:00.178Z,3.54
2018-02-05T09:20:26.121Z,3.46
2018-02-05T09:22:52.066Z,3.34
2018-02-05T09:25:17.996Z,3.58
2018-02-05T09:27:43.958Z,4.00
2018-02-05T09:30:09.928Z,3.91
2018-02-05T09:32:35.977Z,3.84
2018-02-05T09:35:01.898Z,3.93
2018-02-05T09:37:27.900Z,3.88
2018-02-05T09:39:53.898Z,3.94
2018-02-05T09:47:22.689Z,3.69
2018-02-05T09:49:48.627Z,3.85
2018-02-05T09:52:14.601Z,3.87
2018-02-05T09:54:40.529Z,4.01
2018-02-05T09:57:06.484Z,3.80
2018-02-05T09:59:32.415Z,3.77
2018-02-05T10:01:58.348Z,3.70
2018-02-05T10:04:24.306Z,3.96
2018-02-05T10:06:50.233Z,3.92
2018-02-05T10:09:16.264Z,4.21
2018-02-05T10:11:42.151Z,4.02
2018-02-05T10:14:08.075Z,3.93
2018-02-05T10:16:34.023Z,3.71
2018-02-05T10:18:59.957Z,4.03
2018-02-05T10:21:25.893Z,4.14
2018-02-05T10:23:51.833Z,4.06
2018-02-05T10:26:17.765Z,4.51
2018-02-05T10:28:43.706Z,4.28
2018-02-05T10:31:09.646Z,4.28
2018-02-05T10:33:35.599Z,4.15
2018-02-05T10:36:01.550Z,4.04
2018-02-05T10:38:27.501Z,4.26
2018-02-05T10:40:53.458Z,4.43
2018-02-05T10:43:19.395Z,4.29
2018-02-05T10:45:45.339Z,4.54
2018-02-05T10:48:11.290Z,4.42
2018-02-05T10:50:37.234Z,4.14
2018-02-05T10:53:03.172Z,4.19
2018-02-05T10:55:29.116Z,4.35
2018-02-05T11:00:26.512Z,4.21
2018-02-05T11:02:52.467Z,4.30
2018-02-05T11:05:18.424Z,4.34
2018-02-05T11:07:44.362Z,4.63
2018-02-05T11:10:10.310Z,4.69
2018-02-05T11:12:36.252Z,4.77
2018-02-05T11:15:02.190Z,4.58
2018-02-05T11:17:28.166Z,4.47
2018-02-05T11:19:54.095Z,4.39
2018-02-05T11:22:20.029Z,4.63
2018-02-05T11:24:45.969Z,4.23
2018-02-05T11:27:11.905Z,4.36
2018-02-05T11:29:37.867Z,4.50
2018-02-05T11:32:03.806Z,4.70
2018-02-05T11:34:29.762Z,4.29
2018-02-05T11:36:55.880Z,4.37
2018-02-05T11:39:21.833Z,4.23
2018-02-05T11:41:47.777Z,4.06
2018-02-05T11:44:13.710Z,4.19
2018-02-05T11:46:39.634Z,4.32
2018-02-05T11:49:05.561Z,4.26
2018-02-05T11:51:31.502Z,4.13
2018-02-05T11:53:57.442Z,4.10
2018-02-05T11:56:23.378Z,3.63
2018-02-05T11:58:49.367Z,3.80
2018-02-05T12:01:15.355Z,3.87
2018-02-05T12:03:41.295Z,3.95
2018-02-05T12:06:07.245Z,3.99
2018-02-05T12:08:33.183Z,4.24
2018-02-05T12:10:59.119Z,4.36
2018-02-05T12:13:25.048Z,4.17
2018-02-05T12:15:51.013Z,3.92
2018-02-05T12:18:16.963Z,3.64
2018-02-05T12:20:42.908Z,3.67
2018-02-05T12:23:08.867Z,3.71
2018-02-05T12:25:34.837Z,3.66
2018-02-05T12:28:00.788Z,3.72
2018-02-05T12:30:26.729Z,3.39
2018-02-05T12:32:52.646Z,3.68
2018-02-05T12:35:18.597Z,3.93
2018-02-05T12:37:44.543Z,3.65
2018-02-05T12:40:10.515Z,3.45
2018-02-05T12:42:36.465Z,3.81
2018-02-05T12:45:02.455Z,3.42
2018-02-05T12:47:28.402Z,3.62
2018-02-05T12:49:54.354Z,3.63
2018-02-05T12:52:20.330Z,4.16
2018-02-05T12:54:46.293Z,3.97
2018-02-05T12:57:12.275Z,4.14
2018-02-05T12:59:38.222Z,3.73
2018-02-05T13:02:04.189Z,3.57
2018-02-05T13:04:30.163Z,3.46
2018-02-05T13:06:56.095Z,3.24
2018-02-05T13:09:22.111Z,3.49
2018-02-05T13:11:48.007Z,3.51
2018-02-05T13:14:13.955Z,3.55
2018-02-05T13:16:39.893Z,3.53
2018-02-05T13:19:05.935Z,3.70
2018-02-05T13:21:32.020Z,3.79
2018-02-05T13:23:57.964Z,3.69
2018-02-05T13:26:24.153Z,3.65
2018-02-05T13:28:50.131Z,3.58
2018-02-05T13:31:16.073Z,3.80
2018-02-05T13:33:41.993Z,3.81
2018-02-05T13:36:07.928Z,3.89
2018-02-05T13:38:33.852Z,3.95
2018-02-05T13:40:59.849Z,3.80
2018-02-05T13:43:25.790Z,3.92
2018-02-05T13:45:51.752Z,3.86
2018-02-05T13:48:17.689Z,3.84
2018-02-05T13:50:43.661Z,3.90
2018-02-05T13:53:10.244Z,3.93
2018-02-05T13:55:37.212Z,3.82
2018-02-05T13:58:03.250Z,4.02
2018-02-05T14:00:29.293Z,4.18
2018-02-05T14:02:55.279Z,4.17
2018-02-05T14:05:21.428Z,4.02
2018-02-05T14:07:47.378Z,4.06
2018-02-05T14:10:13.358Z,3.83
2018-02-05T14:12:39.306Z,3.77
2018-02-05T14:15:05.278Z,3.63
2018-02-05T14:17:31.226Z,3.76
2018-02-05T14:19:57.376Z,3.52
2018-02-05T14:22:23.393Z,3.54
2018-02-05T14:24:49.384Z,3.81
2018-02-05T14:27:15.320Z,3.72
2018-02-05T14:29:41.254Z,3.55
2018-02-05T14:32:07.311Z,3.68
2018-02-05T14:34:33.279Z,3.74
2018-02-05T14:36:59.235Z,3.57
2018-02-05T14:39:25.175Z,3.48
2018-02-05T14:41:51.106Z,3.50
2018-02-05T14:44:17.078Z,3.77
2018-02-05T14:46:43.026Z,3.87
2018-02-05T14:49:08.974Z,3.45
2018-02-05T14:51:35.718Z,3.72
2018-02-05T14:54:01.683Z,4.27
2018-02-05T14:56:27.610Z,4.22
2018-02-05T14:58:53.582Z,4.26
2018-02-05T15:01:19.510Z,3.80
2018-02-05T15:03:45.454Z,4.14
2018-02-05T15:06:11.378Z,4.19
2018-02-05T15:08:37.350Z,4.04
2018-02-05T15:11:03.309Z,3.84
2018-02-05T15:13:29.238Z,3.58
2018-02-05T15:15:55.186Z,3.75
2018-02-05T15:18:21.140Z,3.81
2018-02-05T15:20:47.144Z,3.68
2018-02-05T15:23:13.098Z,3.57
2018-02-05T15:25:39.064Z,3.72
2018-02-05T15:28:05.016Z,3.67
2018-02-05T15:30:30.962Z,3.71
2018-02-05T15:32:56.934Z,3.73
2018-02-05T15:35:22.870Z,3.59
2018-02-05T15:37:48.801Z,3.69
2018-02-05T15:40:14.744Z,3.54
2018-02-05T15:42:40.696Z,3.36
2018-02-05T15:45:06.646Z,3.51
2018-02-05T15:47:32.696Z,3.68
2018-02-05T15:49:58.647Z,3.69
2018-02-05T15:52:24.663Z,3.45
2018-02-05T15:54:50.635Z,3.40
2018-02-05T15:57:16.668Z,3.59
2018-02-05T15:59:42.601Z,3.63
2018-02-05T16:02:08.560Z,3.72
2018-02-05T16:04:34.501Z,3.81
2018-02-05T16:07:00.478Z,3.86
2018-02-05T16:16:10.355Z,3.48
2018-02-05T16:18:36.432Z,3.65
2018-02-05T16:21:02.368Z,3.53
2018-02-05T16:23:28.308Z,3.40
2018-02-05T16:25:54.293Z,3.46
2018-02-05T16:28:20.218Z,3.32
2018-02-05T16:30:46.163Z,3.48
2018-02-05T16:33:12.101Z,3.46
2018-02-05T16:35:38.057Z,3.52
2018-02-05T16:38:04.010Z,3.60
2018-02-05T16:40:29.974Z,3.76
2018-02-05T16:42:55.915Z,3.75
2018-02-05T16:45:21.926Z,3.53
2018-02-05T16:47:48.233Z,3.67
2018-02-05T16:50:14.194Z,3.62
2018-02-05T16:52:40.211Z,3.68
2018-02-05T16:55:06.244Z,3.61
2018-02-05T16:57:32.208Z,3.63
2018-02-05T16:59:58.198Z,3.50
2018-02-05T17:02:24.218Z,3.36
2018-02-05T17:04:50.192Z,3.43
2018-02-05T17:07:16.170Z,3.31
2018-02-05T17:09:42.152Z,3.35
2018-02-05T17:12:08.107Z,3.70
2018-02-05T17:14:34.056Z,3.84
2018-02-05T17:17:00.027Z,3.70
2018-02-05T17:19:25.985Z,3.70
2018-02-05T17:21:51.970Z,3.69
2018-02-05T17:24:17.984Z,3.64
2018-02-05T17:26:43.957Z,3.68
2018-02-05T17:29:09.892Z,3.71
2018-02-05T17:31:35.878Z,3.73
2018-02-05T17:34:01.832Z,3.61
2018-02-05T17:36:27.796Z,3.54
2018-02-05T17:38:53.852Z,3.75
2018-02-05T17:41:19.800Z,3.80
2018-02-05T17:43:45.972Z,3.72
2018-02-05T17:46:12.044Z,3.56
2018-02-05T17:48:38.035Z,3.69
2018-02-05T17:51:04.069Z,3.71
2018-02-05T17:53:30.030Z,3.47
2018-02-05T17:55:55.986Z,3.52
2018-02-05T17:58:21.949Z,3.53
2018-02-05T18:00:47.891Z,3.41
2018-02-05T18:03:13.862Z,3.38
2018-02-05T18:05:39.898Z,3.46
2018-02-05T18:08:05.857Z,3.64
2018-02-05T18:10:31.848Z,3.54
2018-02-05T18:12:57.800Z,3.41
2018-02-05T18:15:23.740Z,3.48
2018-02-05T18:17:49.684Z,3.33
2018-02-05T18:20:15.636Z,3.37
2018-02-05T18:22:41.586Z,3.45
2018-02-05T18:25:07.548Z,3.15
2018-02-05T18:27:33.488Z,2.93
2018-02-05T18:29:59.421Z,3.08
2018-02-05T18:32:25.476Z,3.04
2018-02-05T18:37:23.775Z,3.11
2018-02-05T18:39:49.903Z,3.17
2018-02-05T18:42:15.868Z,3.27
2018-02-05T18:44:41.847Z,3.27
2018-02-05T18:47:07.808Z,3.11
2018-02-05T18:49:33.773Z,3.17
2018-02-05T18:51:59.807Z,3.14
2018-02-05T18:54:25.816Z,3.12
2018-02-05T18:56:51.771Z,3.08
2018-02-05T18:59:17.724Z,2.98
2018-02-05T19:01:43.653Z,2.86
2018-02-05T19:04:09.613Z,2.96
2018-02-05T19:06:35.544Z,2.97
2018-02-05T19:09:01.557Z,3.06
2018-02-05T19:11:27.493Z,3.07
2018-02-05T19:13:53.439Z,2.81
2018-02-05T19:16:19.380Z,2.80
2018-02-05T19:18:45.326Z,2.96
2018-02-05T19:21:11.303Z,2.85
2018-02-05T19:23:37.282Z,2.89
2018-02-05T19:26:03.234Z,2.66
2018-02-05T19:28:29.168Z,2.76
2018-02-05T19:30:55.134Z,2.79
2018-02-05T19:33:21.089Z,2.72
2018-02-05T19:35:47.038Z,2.85
2018-02-05T19:38:13.082Z,2.75
2018-02-05T19:40:39.044Z,2.47
2018-02-05T19:43:04.987Z,2.59
2018-02-05T19:45:30.928Z,2.61
2018-02-05T19:47:56.866Z,2.52
2018-02-05T19:50:22.816Z,2.83
2018-02-05T19:52:48.760Z,2.94
2018-02-05T19:55:14.777Z,2.95
2018-02-05T19:57:40.731Z,2.91
2018-02-05T20:00:07.099Z,2.27
2018-02-05T20:02:33.072Z,2.41
2018-02-05T20:04:59.009Z,2.69
2018-02-05T20:07:24.975Z,2.15
2018-02-05T20:09:50.914Z,2.03
2018-02-05T20:12:16.870Z,2.54
2018-02-05T20:14:42.820Z,1.76
2018-02-05T20:17:08.818Z,2.18
2018-02-05T20:19:34.834Z,2.20
2018-02-05T20:22:00.810Z,2.46
2018-02-05T20:24:29.037Z,2.04
2018-02-05T20:26:55.029Z,2.45
2018-02-05T20:29:20.983Z,1.90
2018-02-05T20:31:46.932Z,1.28
2018-02-05T20:34:12.879Z,1.39
2018-02-05T20:36:38.832Z,1.32
2018-02-05T20:39:04.792Z,1.52
2018-02-05T20:41:30.760Z,1.17
2018-02-05T20:43:56.724Z,1.52
2018-02-05T20:46:22.667Z,1.94
2018-02-05T20:48:48.623Z,1.65
2018-02-05T20:51:14.583Z,1.45
2018-02-05T20:53:40.540Z,1.79
2018-02-05T20:56:06.475Z,1.42
2018-02-05T20:58:32.546Z,1.22
2018-02-05T21:00:58.519Z,1.39
2018-02-05T21:03:24.500Z,1.79
2018-02-05T21:05:50.455Z,1.23
2018-02-05T21:08:16.445Z,0.91
2018-02-05T21:10:42.409Z,1.13
2018-02-05T21:13:08.361Z,1.15
2018-02-05T21:15:34.413Z,1.45
2018-02-05T21:18:00.347Z,1.14
2018-02-05T21:20:26.362Z,0.91
2018-02-05T21:22:52.295Z,0.74
2018-02-05T21:25:18.251Z,0.93
2018-02-05T21:27:44.217Z,1.04
2018-02-05T21:30:10.191Z,0.97
2018-02-05T21:32:38.129Z,1.15
2018-02-05T21:35:04.149Z,1.76
2018-02-05T21:37:30.130Z,2.02
2018-02-05T21:39:56.103Z,1.48
2018-02-05T21:42:22.051Z,1.37
2018-02-05T21:44:47.995Z,1.04
2018-02-05T21:47:14.272Z,0.68
2018-02-05T21:49:40.218Z,0.78
2018-02-05T21:52:06.163Z,1.03
2018-02-05T21:54:32.093Z,1.40
2018-02-05T21:56:58.036Z,1.29
2018-02-05T21:59:24.024Z,1.14
2018-02-05T22:01:49.975Z,0.98
2018-02-05T22:04:15.922Z,1.07
2018-02-05T22:09:14.262Z,0.69
2018-02-05T22:14:11.521Z,0.71
2018-02-05T22:16:37.473Z,0.91
2018-02-05T22:19:03.413Z,0.78
2018-02-05T22:24:00.738Z,1.09
2018-02-05T22:26:26.688Z,0.76
2018-02-05T22:33:55.230Z,0.51
2018-02-05T22:36:21.194Z,1.06
2018-02-05T22:38:47.202Z,0.93
2018-02-05T22:41:13.149Z,1.01
2018-02-05T22:43:39.124Z,0.57
2018-02-05T22:46:05.078Z,0.43
2018-02-05T22:48:31.018Z,0.46
2018-02-05T22:50:57.002Z,0.29
2018-02-05T22:53:22.938Z,0.42
2018-02-05T22:55:48.872Z,0.27
2018-02-05T22:58:14.824Z,0.22
2018-02-05T23:00:40.764Z,0.25
2018-02-05T23:03:06.712Z,0.26
2018-02-05T23:05:32.670Z,0.29
2018-02-05T23:07:58.660Z,0.51
2018-02-05T23:10:24.620Z,1.23
2018-02-05T23:12:50.556Z,0.72
2018-02-05T23:15:16.518Z,0.25
2018-02-05T23:17:42.530Z,0.04
2018-02-05T23:20:08.472Z,0.05
2018-02-05T23:22:34.464Z,0.36
2018-02-05T23:25:00.400Z,0.15
2018-02-05T23:27:26.348Z,-0.34
2018-02-05T23:29:52.316Z,-0.24
2018-02-05T23:32:18.258Z,-0.56
2018-02-05T23:34:44.240Z,-0.58
2018-02-05T23:37:10.182Z,-0.46
2018-02-05T23:39:36.131Z,-0.17
2018-02-05T23:42:02.089Z,0.43
2018-02-05T23:44:28.044Z,0.41
2018-02-05T23:46:54.038Z,-0.28
2018-02-05T23:49:19.958Z,-0.27
2018-02-05T23:51:45.920Z,-0.34
2018-02-05T23:54:11.864Z,-0.21
2018-02-05T23:56:37.858Z,-0.31
2018-02-05T23:59:03.801Z,-0.30
